sensor_id;sensor_type;location;lat;lon;timestamp;temperature;humidity
10512;DHT22;5304;48.604;2.096;2024-01-30T04:38:00;10.00;99.90
10512;DHT22;5304;48.604;2.096;2024-01-30T04:40:44;10.10;99.90
10512;DHT22;5304;48.604;2.096;2024-01-30T04:43:28;10.10;99.90
10512;DHT22;5304;48.604;2.096;2024-01-30T04:46:13;10.10;99.90
10512;DHT22;5304;48.604;2.096;2024-01-30T04:48:57;10.20;99.90
10512;DHT22;5304;48.604;2.096;2024-01-30T04:51:41;10.10;99.90
10512;DHT22;5304;48.604;2.096;2024-01-30T04:54:25;10.20;99.90
10512;DHT22;5304;48.604;2.096;2024-01-30T04:57:10;10.20;99.90
10512;DHT22;5304;48.604;2.096;2024-01-30T04:59:56;10.20;99.90
10512;DHT22;5304;48.604;2.096;2024-01-30T05:02:40;10.20;99.90
10512;DHT22;5304;48.604;2.096;2024-01-30T05:05:24;10.20;99.90
10512;DHT22;5304;48.604;2.096;2024-01-30T05:08:09;10.20;99.90
10512;DHT22;5304;48.604;2.096;2024-01-30T05:10:53;10.10;99.90
10512;DHT22;5304;48.604;2.096;2024-01-30T05:13:37;10.10;99.90
10512;DHT22;5304;48.604;2.096;2024-01-30T05:16:22;10.10;99.90
10512;DHT22;5304;48.604;2.096;2024-01-30T05:19:06;10.20;99.90
10512;DHT22;5304;48.604;2.096;2024-01-30T05:21:51;10.10;99.90
10512;DHT22;5304;48.604;2.096;2024-01-30T05:24:37;10.10;99.90
10512;DHT22;5304;48.604;2.096;2024-01-30T05:27:21;10.10;99.90
10512;DHT22;5304;48.604;2.096;2024-01-30T05:30:07;10.10;99.90
10512;DHT22;5304;48.604;2.096;2024-01-30T05:32:52;10.10;99.90
10512;DHT22;5304;48.604;2.096;2024-01-30T05:35:36;10.10;99.90
10512;DHT22;5304;48.604;2.096;2024-01-30T05:38:21;10.10;99.90
10512;DHT22;5304;48.604;2.096;2024-01-30T05:41:05;10.00;99.90
10512;DHT22;5304;48.604;2.096;2024-01-30T05:43:49;10.00;99.90
10512;DHT22;5304;48.604;2.096;2024-01-30T05:46:35;10.10;99.90
10512;DHT22;5304;48.604;2.096;2024-01-30T05:49:19;10.00;99.90
10512;DHT22;5304;48.604;2.096;2024-01-30T05:52:04;10.00;99.90
10512;DHT22;5304;48.604;2.096;2024-01-30T05:54:48;10.00;99.90
10512;DHT22;5304;48.604;2.096;2024-01-30T05:57:33;10.10;99.90
10512;DHT22;5304;48.604;2.096;2024-01-30T06:00:17;10.10;99.90
10512;DHT22;5304;48.604;2.096;2024-01-30T06:03:02;10.10;99.90
10512;DHT22;5304;48.604;2.096;2024-01-30T06:05:46;10.10;99.90
10512;DHT22;5304;48.604;2.096;2024-01-30T06:08:30;10.10;99.90
10512;DHT22;5304;48.604;2.096;2024-01-30T06:11:14;10.00;99.90
10512;DHT22;5304;48.604;2.096;2024-01-30T06:13:59;10.20;99.90
10512;DHT22;5304;48.604;2.096;2024-01-30T06:16:44;10.10;99.90
10512;DHT22;5304;48.604;2.096;2024-01-30T06:19:28;10.00;99.90
10512;DHT22;5304;48.604;2.096;2024-01-30T06:22:12;10.00;99.90
10512;DHT22;5304;48.604;2.096;2024-01-30T06:24:56;10.00;99.90
10512;DHT22;5304;48.604;2.096;2024-01-30T06:27:40;9.90;99.90
10512;DHT22;5304;48.604;2.096;2024-01-30T06:30:25;9.90;99.90
10512;DHT22;5304;48.604;2.096;2024-01-30T06:33:12;10.00;99.90
10512;DHT22;5304;48.604;2.096;2024-01-30T06:35:56;9.80;99.90
10512;DHT22;5304;48.604;2.096;2024-01-30T06:38:42;9.90;99.90
10512;DHT22;5304;48.604;2.096;2024-01-30T06:41:26;9.80;99.90
10512;DHT22;5304;48.604;2.096;2024-01-30T06:44:11;9.90;99.90
10512;DHT22;5304;48.604;2.096;2024-01-30T06:46:55;9.90;99.90
10512;DHT22;5304;48.604;2.096;2024-01-30T06:49:39;9.80;99.90
10512;DHT22;5304;48.604;2.096;2024-01-30T06:52:25;9.90;99.90
10512;DHT22;5304;48.604;2.096;2024-01-30T06:55:10;9.80;99.90
10512;DHT22;5304;48.604;2.096;2024-01-30T06:57:54;9.90;99.90
10512;DHT22;5304;48.604;2.096;2024-01-30T07:00:38;9.80;99.90
10512;DHT22;5304;48.604;2.096;2024-01-30T07:03:22;9.80;99.90
10512;DHT22;5304;48.604;2.096;2024-01-30T07:06:06;9.70;99.90
10512;DHT22;5304;48.604;2.096;2024-01-30T07:08:51;9.70;99.90
10512;DHT22;5304;48.604;2.096;2024-01-30T07:11:35;9.70;99.90
10512;DHT22;5304;48.604;2.096;2024-01-30T07:14:20;9.60;99.90
10512;DHT22;5304;48.604;2.096;2024-01-30T07:17:04;9.80;99.90
10512;DHT22;5304;48.604;2.096;2024-01-30T07:19:48;9.80;99.90
10512;DHT22;5304;48.604;2.096;2024-01-30T07:22:33;9.80;99.90
10512;DHT22;5304;48.604;2.096;2024-01-30T07:25:17;9.80;99.90
10512;DHT22;5304;48.604;2.096;2024-01-30T07:28:01;9.80;99.90
10512;DHT22;5304;48.604;2.096;2024-01-30T07:30:48;9.90;99.90
10512;DHT22;5304;48.604;2.096;2024-01-30T07:33:33;9.90;99.90
10512;DHT22;5304;48.604;2.096;2024-01-30T07:36:17;9.90;99.90
10512;DHT22;5304;48.604;2.096;2024-01-30T07:39:01;9.90;99.90
10512;DHT22;5304;48.604;2.096;2024-01-30T07:41:45;9.90;99.90
10512;DHT22;5304;48.604;2.096;2024-01-30T07:44:29;9.90;99.90
10512;DHT22;5304;48.604;2.096;2024-01-30T07:47:14;9.90;99.90
10512;DHT22;5304;48.604;2.096;2024-01-30T07:49:58;10.00;99.90
10512;DHT22;5304;48.604;2.096;2024-01-30T07:52:43;10.10;99.90
10512;DHT22;5304;48.604;2.096;2024-01-30T07:55:28;10.00;99.90
10512;DHT22;5304;48.604;2.096;2024-01-30T07:58:12;10.00;99.90
10512;DHT22;5304;48.604;2.096;2024-01-30T08:00:57;10.10;99.90
10512;DHT22;5304;48.604;2.096;2024-01-30T08:03:42;10.00;99.90
10512;DHT22;5304;48.604;2.096;2024-01-30T08:06:26;10.00;99.90
10512;DHT22;5304;48.604;2.096;2024-01-30T08:09:10;10.00;99.90
10512;DHT22;5304;48.604;2.096;2024-01-30T08:11:55;10.10;99.90
10512;DHT22;5304;48.604;2.096;2024-01-30T08:14:39;10.10;99.90
10512;DHT22;5304;48.604;2.096;2024-01-30T08:17:25;10.10;99.90
10512;DHT22;5304;48.604;2.096;2024-01-30T08:20:09;10.10;99.90
10512;DHT22;5304;48.604;2.096;2024-01-30T08:22:56;10.10;99.90
10512;DHT22;5304;48.604;2.096;2024-01-30T08:25:40;10.20;99.90
10512;DHT22;5304;48.604;2.096;2024-01-30T08:28:24;10.20;99.90
10512;DHT22;5304;48.604;2.096;2024-01-30T08:31:10;10.20;99.90
10512;DHT22;5304;48.604;2.096;2024-01-30T08:33:56;10.20;99.90
10512;DHT22;5304;48.604;2.096;2024-01-30T08:36:40;10.20;99.90
10512;DHT22;5304;48.604;2.096;2024-01-30T08:39:24;10.10;99.90
10512;DHT22;5304;48.604;2.096;2024-01-30T08:42:08;10.20;99.90
10512;DHT22;5304;48.604;2.096;2024-01-30T08:44:52;10.20;99.90
10512;DHT22;5304;48.604;2.096;2024-01-30T08:47:37;10.20;99.90
10512;DHT22;5304;48.604;2.096;2024-01-30T08:50:21;10.20;99.90
10512;DHT22;5304;48.604;2.096;2024-01-30T08:53:05;10.20;99.90
10512;DHT22;5304;48.604;2.096;2024-01-30T08:55:49;10.30;99.90
10512;DHT22;5304;48.604;2.096;2024-01-30T08:58:33;10.20;99.90
10512;DHT22;5304;48.604;2.096;2024-01-30T09:01:17;10.20;99.90
10512;DHT22;5304;48.604;2.096;2024-01-30T09:04:02;10.10;99.90
10512;DHT22;5304;48.604;2.096;2024-01-30T09:06:47;10.20;99.90
10512;DHT22;5304;48.604;2.096;2024-01-30T09:09:32;10.30;99.90
10512;DHT22;5304;48.604;2.096;2024-01-30T09:12:16;10.20;99.90
10512;DHT22;5304;48.604;2.096;2024-01-30T09:15:01;10.30;99.90
10512;DHT22;5304;48.604;2.096;2024-01-30T09:17:45;10.30;99.90
10512;DHT22;5304;48.604;2.096;2024-01-30T09:20:29;10.30;99.90
10512;DHT22;5304;48.604;2.096;2024-01-30T09:23:13;10.30;99.90
10512;DHT22;5304;48.604;2.096;2024-01-30T09:25:57;10.40;99.90
10512;DHT22;5304;48.604;2.096;2024-01-30T09:28:42;10.40;99.90
10512;DHT22;5304;48.604;2.096;2024-01-30T09:31:26;10.30;99.90
10512;DHT22;5304;48.604;2.096;2024-01-30T09:34:11;10.40;99.90
10512;DHT22;5304;48.604;2.096;2024-01-30T09:36:56;10.40;99.90
10512;DHT22;5304;48.604;2.096;2024-01-30T09:39:40;10.40;99.90
10512;DHT22;5304;48.604;2.096;2024-01-30T09:45:14;10.30;99.90
10512;DHT22;5304;48.604;2.096;2024-01-30T09:47:59;10.50;99.90
10512;DHT22;5304;48.604;2.096;2024-01-30T09:50:43;10.50;99.90
10512;DHT22;5304;48.604;2.096;2024-01-30T09:53:27;10.50;99.90
10512;DHT22;5304;48.604;2.096;2024-01-30T09:56:15;10.50;99.90
10512;DHT22;5304;48.604;2.096;2024-01-30T09:59:00;10.50;99.90
10512;DHT22;5304;48.604;2.096;2024-01-30T10:01:45;10.50;99.90
10512;DHT22;5304;48.604;2.096;2024-01-30T10:04:30;10.60;99.90
10512;DHT22;5304;48.604;2.096;2024-01-30T10:07:14;10.60;99.90
10512;DHT22;5304;48.604;2.096;2024-01-30T10:09:58;10.60;99.90
10512;DHT22;5304;48.604;2.096;2024-01-30T10:12:43;10.70;99.90
10512;DHT22;5304;48.604;2.096;2024-01-30T10:15:28;10.90;99.90
10512;DHT22;5304;48.604;2.096;2024-01-30T10:18:13;11.10;99.90
10512;DHT22;5304;48.604;2.096;2024-01-30T10:20:57;11.00;99.90
10512;DHT22;5304;48.604;2.096;2024-01-30T10:23:43;11.00;99.90
10512;DHT22;5304;48.604;2.096;2024-01-30T10:26:27;11.00;99.90
10512;DHT22;5304;48.604;2.096;2024-01-30T10:29:13;10.90;99.90
10512;DHT22;5304;48.604;2.096;2024-01-30T10:32:01;11.00;99.90
10512;DHT22;5304;48.604;2.096;2024-01-30T10:34:46;11.10;99.90
10512;DHT22;5304;48.604;2.096;2024-01-30T10:37:31;11.10;99.90
10512;DHT22;5304;48.604;2.096;2024-01-30T10:40:17;11.20;99.90
10512;DHT22;5304;48.604;2.096;2024-01-30T10:43:05;11.10;99.90
10512;DHT22;5304;48.604;2.096;2024-01-30T10:45:53;11.20;99.90
10512;DHT22;5304;48.604;2.096;2024-01-30T10:48:44;11.20;99.90
10512;DHT22;5304;48.604;2.096;2024-01-30T10:51:32;11.20;99.90
10512;DHT22;5304;48.604;2.096;2024-01-30T10:54:17;11.40;99.90
10512;DHT22;5304;48.604;2.096;2024-01-30T10:57:03;11.30;99.90
10512;DHT22;5304;48.604;2.096;2024-01-30T10:59:48;11.30;99.90
10512;DHT22;5304;48.604;2.096;2024-01-30T11:02:33;11.30;99.90
10512;DHT22;5304;48.604;2.096;2024-01-30T11:05:24;11.40;99.90
10512;DHT22;5304;48.604;2.096;2024-01-30T11:08:13;11.40;99.90
10512;DHT22;5304;48.604;2.096;2024-01-30T11:10:58;11.30;99.90
10512;DHT22;5304;48.604;2.096;2024-01-30T11:13:42;11.30;99.90
10512;DHT22;5304;48.604;2.096;2024-01-30T11:16:31;11.30;99.90
10512;DHT22;5304;48.604;2.096;2024-01-30T11:19:22;11.30;99.90
10512;DHT22;5304;48.604;2.096;2024-01-30T11:22:08;11.30;99.90
10512;DHT22;5304;48.604;2.096;2024-01-30T11:24:53;11.30;99.90
10512;DHT22;5304;48.604;2.096;2024-01-30T11:27:37;11.30;99.90
10512;DHT22;5304;48.604;2.096;2024-01-30T11:30:31;11.20;99.90
10512;DHT22;5304;48.604;2.096;2024-01-30T11:33:30;11.30;99.90
10512;DHT22;5304;48.604;2.096;2024-01-30T11:36:15;11.30;99.90
10512;DHT22;5304;48.604;2.096;2024-01-30T11:39:00;11.30;99.90
10512;DHT22;5304;48.604;2.096;2024-01-30T11:41:46;11.40;99.90
10512;DHT22;5304;48.604;2.096;2024-01-30T11:44:30;11.40;99.90
10512;DHT22;5304;48.604;2.096;2024-01-30T11:47:15;11.50;99.90
10512;DHT22;5304;48.604;2.096;2024-01-30T11:50:00;11.70;99.90
10512;DHT22;5304;48.604;2.096;2024-01-30T11:52:44;11.80;99.90
10512;DHT22;5304;48.604;2.096;2024-01-30T11:55:31;11.70;99.90
10512;DHT22;5304;48.604;2.096;2024-01-30T11:58:16;11.80;99.90
10512;DHT22;5304;48.604;2.096;2024-01-30T12:01:00;11.90;99.90
10512;DHT22;5304;48.604;2.096;2024-01-30T12:03:51;12.10;99.90
10512;DHT22;5304;48.604;2.096;2024-01-30T12:06:35;12.10;99.90
10512;DHT22;5304;48.604;2.096;2024-01-30T12:09:20;12.30;99.90
10512;DHT22;5304;48.604;2.096;2024-01-30T12:12:07;12.30;99.90
10512;DHT22;5304;48.604;2.096;2024-01-30T12:14:56;12.50;99.90
10512;DHT22;5304;48.604;2.096;2024-01-30T12:17:41;12.60;99.90
10512;DHT22;5304;48.604;2.096;2024-01-30T12:20:25;12.60;99.90
10512;DHT22;5304;48.604;2.096;2024-01-30T12:23:12;12.80;99.90
10512;DHT22;5304;48.604;2.096;2024-01-30T12:25:57;12.90;99.90
10512;DHT22;5304;48.604;2.096;2024-01-30T12:28:50;12.70;99.90
10512;DHT22;5304;48.604;2.096;2024-01-30T12:31:35;12.60;99.90
10512;DHT22;5304;48.604;2.096;2024-01-30T12:34:19;12.70;99.90
10512;DHT22;5304;48.604;2.096;2024-01-30T12:37:04;12.70;99.90
10512;DHT22;5304;48.604;2.096;2024-01-30T12:39:53;12.80;99.90
10512;DHT22;5304;48.604;2.096;2024-01-30T12:42:38;12.90;99.90
10512;DHT22;5304;48.604;2.096;2024-01-30T12:45:22;12.90;99.90
10512;DHT22;5304;48.604;2.096;2024-01-30T12:48:07;12.80;99.90
10512;DHT22;5304;48.604;2.096;2024-01-30T12:50:51;13.00;99.90
10512;DHT22;5304;48.604;2.096;2024-01-30T12:53:36;12.90;99.90
10512;DHT22;5304;48.604;2.096;2024-01-30T12:56:20;13.00;99.90
10512;DHT22;5304;48.604;2.096;2024-01-30T12:59:04;12.90;99.90
10512;DHT22;5304;48.604;2.096;2024-01-30T13:01:48;12.80;99.90
10512;DHT22;5304;48.604;2.096;2024-01-30T13:04:33;12.80;99.90
10512;DHT22;5304;48.604;2.096;2024-01-30T13:07:17;12.60;99.90
10512;DHT22;5304;48.604;2.096;2024-01-30T13:10:02;12.50;99.90
10512;DHT22;5304;48.604;2.096;2024-01-30T13:12:49;12.30;99.90
10512;DHT22;5304;48.604;2.096;2024-01-30T13:15:33;12.30;99.90
10512;DHT22;5304;48.604;2.096;2024-01-30T13:18:18;12.20;99.90
10512;DHT22;5304;48.604;2.096;2024-01-30T13:21:02;12.10;99.90
10512;DHT22;5304;48.604;2.096;2024-01-30T13:23:46;12.10;99.90
10512;DHT22;5304;48.604;2.096;2024-01-30T13:26:32;12.10;99.90
10512;DHT22;5304;48.604;2.096;2024-01-30T13:29:16;12.00;99.90
10512;DHT22;5304;48.604;2.096;2024-01-30T13:32:00;12.00;99.90
10512;DHT22;5304;48.604;2.096;2024-01-30T13:34:45;11.90;99.90
10512;DHT22;5304;48.604;2.096;2024-01-30T13:37:29;11.80;99.90
10512;DHT22;5304;48.604;2.096;2024-01-30T13:40:14;11.90;99.90
10512;DHT22;5304;48.604;2.096;2024-01-30T13:42:59;11.90;99.90
10512;DHT22;5304;48.604;2.096;2024-01-30T13:45:43;11.90;99.90
10512;DHT22;5304;48.604;2.096;2024-01-30T13:48:28;12.00;99.90
10512;DHT22;5304;48.604;2.096;2024-01-30T13:51:12;12.10;99.90
10512;DHT22;5304;48.604;2.096;2024-01-30T13:53:57;12.10;99.90
10512;DHT22;5304;48.604;2.096;2024-01-30T13:56:41;12.10;99.90
10512;DHT22;5304;48.604;2.096;2024-01-30T13:59:26;12.10;99.90
10512;DHT22;5304;48.604;2.096;2024-01-30T14:02:10;12.10;99.90
10512;DHT22;5304;48.604;2.096;2024-01-30T14:04:54;12.10;99.90
10512;DHT22;5304;48.604;2.096;2024-01-30T14:07:39;12.10;99.90
10512;DHT22;5304;48.604;2.096;2024-01-30T14:10:25;12.00;99.90
10512;DHT22;5304;48.604;2.096;2024-01-30T14:13:09;12.00;99.90
10512;DHT22;5304;48.604;2.096;2024-01-30T14:15:55;11.90;99.90
10512;DHT22;5304;48.604;2.096;2024-01-30T14:18:40;11.90;99.90
10512;DHT22;5304;48.604;2.096;2024-01-30T14:21:25;12.00;99.90
10512;DHT22;5304;48.604;2.096;2024-01-30T14:24:09;12.00;99.90
10512;DHT22;5304;48.604;2.096;2024-01-30T14:26:53;12.00;99.90
10512;DHT22;5304;48.604;2.096;2024-01-30T14:29:38;11.90;99.90
10512;DHT22;5304;48.604;2.096;2024-01-30T14:32:23;11.90;99.90
10512;DHT22;5304;48.604;2.096;2024-01-30T14:35:07;11.80;99.90
10512;DHT22;5304;48.604;2.096;2024-01-30T14:37:53;11.80;99.90
10512;DHT22;5304;48.604;2.096;2024-01-30T14:40:38;11.80;99.90
10512;DHT22;5304;48.604;2.096;2024-01-30T14:43:22;11.90;99.90
10512;DHT22;5304;48.604;2.096;2024-01-30T14:46:06;11.90;99.90
10512;DHT22;5304;48.604;2.096;2024-01-30T14:48:51;11.80;99.90
10512;DHT22;5304;48.604;2.096;2024-01-30T14:51:35;11.80;99.90
10512;DHT22;5304;48.604;2.096;2024-01-30T14:54:19;11.90;99.90
10512;DHT22;5304;48.604;2.096;2024-01-30T14:57:04;11.70;99.90
10512;DHT22;5304;48.604;2.096;2024-01-30T14:59:48;11.80;99.90
10512;DHT22;5304;48.604;2.096;2024-01-30T15:02:33;11.70;99.90
10512;DHT22;5304;48.604;2.096;2024-01-30T15:05:18;11.60;99.90
10512;DHT22;5304;48.604;2.096;2024-01-30T15:08:03;11.70;99.90
10512;DHT22;5304;48.604;2.096;2024-01-30T15:10:48;11.70;99.90
10512;DHT22;5304;48.604;2.096;2024-01-30T15:13:35;11.80;99.90
10512;DHT22;5304;48.604;2.096;2024-01-30T15:16:19;11.80;99.90
10512;DHT22;5304;48.604;2.096;2024-01-30T15:19:03;11.80;99.90
10512;DHT22;5304;48.604;2.096;2024-01-30T15:21:48;11.70;99.90
10512;DHT22;5304;48.604;2.096;2024-01-30T15:24:32;11.70;99.90
10512;DHT22;5304;48.604;2.096;2024-01-30T15:27:17;11.80;99.90
10512;DHT22;5304;48.604;2.096;2024-01-30T15:30:03;11.60;99.90
10512;DHT22;5304;48.604;2.096;2024-01-30T15:32:48;11.70;99.90
10512;DHT22;5304;48.604;2.096;2024-01-30T15:35:33;11.70;99.90
10512;DHT22;5304;48.604;2.096;2024-01-30T15:38:19;11.60;99.90
10512;DHT22;5304;48.604;2.096;2024-01-30T15:41:04;11.60;99.90
10512;DHT22;5304;48.604;2.096;2024-01-30T15:43:49;11.70;99.90
10512;DHT22;5304;48.604;2.096;2024-01-30T15:46:33;11.50;99.90
10512;DHT22;5304;48.604;2.096;2024-01-30T15:49:17;11.50;99.90
10512;DHT22;5304;48.604;2.096;2024-01-30T15:52:02;11.50;99.90
10512;DHT22;5304;48.604;2.096;2024-01-30T15:54:46;11.50;99.90
10512;DHT22;5304;48.604;2.096;2024-01-30T15:57:34;11.50;99.90
10512;DHT22;5304;48.604;2.096;2024-01-30T16:00:18;11.40;99.90
10512;DHT22;5304;48.604;2.096;2024-01-30T16:03:03;11.40;99.90
10512;DHT22;5304;48.604;2.096;2024-01-30T16:05:48;11.30;99.90
10512;DHT22;5304;48.604;2.096;2024-01-30T16:08:32;11.40;99.90
10512;DHT22;5304;48.604;2.096;2024-01-30T16:11:17;11.20;99.90
10512;DHT22;5304;48.604;2.096;2024-01-30T16:14:01;11.10;99.90
10512;DHT22;5304;48.604;2.096;2024-01-30T16:16:45;11.00;99.90
10512;DHT22;5304;48.604;2.096;2024-01-30T16:19:30;11.00;99.90
10512;DHT22;5304;48.604;2.096;2024-01-30T16:22:17;11.00;99.90
10512;DHT22;5304;48.604;2.096;2024-01-30T16:25:04;10.90;99.90
10512;DHT22;5304;48.604;2.096;2024-01-30T16:27:49;10.90;99.90
10512;DHT22;5304;48.604;2.096;2024-01-30T16:30:33;10.70;99.90
10512;DHT22;5304;48.604;2.096;2024-01-30T16:33:17;10.70;99.90
10512;DHT22;5304;48.604;2.096;2024-01-30T16:36:02;10.70;99.90
10512;DHT22;5304;48.604;2.096;2024-01-30T16:38:47;10.70;99.90
10512;DHT22;5304;48.604;2.096;2024-01-30T16:41:33;10.70;99.90
10512;DHT22;5304;48.604;2.096;2024-01-30T16:44:17;10.60;99.90
10512;DHT22;5304;48.604;2.096;2024-01-30T16:47:01;10.50;99.90
10512;DHT22;5304;48.604;2.096;2024-01-30T16:49:45;10.50;99.90
10512;DHT22;5304;48.604;2.096;2024-01-30T16:52:30;10.50;99.90
10512;DHT22;5304;48.604;2.096;2024-01-30T16:55:14;10.40;99.90
10512;DHT22;5304;48.604;2.096;2024-01-30T16:57:58;10.30;99.90
10512;DHT22;5304;48.604;2.096;2024-01-30T17:00:43;10.40;99.90
10512;DHT22;5304;48.604;2.096;2024-01-30T17:03:27;10.30;99.90
10512;DHT22;5304;48.604;2.096;2024-01-30T17:06:11;10.20;99.90
10512;DHT22;5304;48.604;2.096;2024-01-30T17:08:56;10.30;99.90
10512;DHT22;5304;48.604;2.096;2024-01-30T17:11:41;10.20;99.90
10512;DHT22;5304;48.604;2.096;2024-01-30T17:14:25;10.20;99.90
10512;DHT22;5304;48.604;2.096;2024-01-30T17:17:10;10.10;99.90
10512;DHT22;5304;48.604;2.096;2024-01-30T17:19:54;10.10;99.90
10512;DHT22;5304;48.604;2.096;2024-01-30T17:22:38;10.10;99.90
10512;DHT22;5304;48.604;2.096;2024-01-30T17:25:23;10.20;99.90
10512;DHT22;5304;48.604;2.096;2024-01-30T17:28:07;10.00;99.90
10512;DHT22;5304;48.604;2.096;2024-01-30T17:30:54;10.00;99.90
10512;DHT22;5304;48.604;2.096;2024-01-30T17:33:39;10.10;99.90
10512;DHT22;5304;48.604;2.096;2024-01-30T17:36:23;10.00;99.90
10512;DHT22;5304;48.604;2.096;2024-01-30T17:39:08;10.00;99.90
10512;DHT22;5304;48.604;2.096;2024-01-30T17:41:52;9.90;99.90
10512;DHT22;5304;48.604;2.096;2024-01-30T17:44:37;9.80;99.90
10512;DHT22;5304;48.604;2.096;2024-01-30T17:47:24;9.90;99.90
10512;DHT22;5304;48.604;2.096;2024-01-30T17:50:08;9.70;99.90
10512;DHT22;5304;48.604;2.096;2024-01-30T17:52:53;9.60;99.90
10512;DHT22;5304;48.604;2.096;2024-01-30T17:55:38;9.50;99.90
10512;DHT22;5304;48.604;2.096;2024-01-30T17:58:22;9.50;99.90
10512;DHT22;5304;48.604;2.096;2024-01-30T18:01:07;9.40;99.90
10512;DHT22;5304;48.604;2.096;2024-01-30T18:03:51;9.30;99.90
10512;DHT22;5304;48.604;2.096;2024-01-30T18:06:39;9.30;99.90
10512;DHT22;5304;48.604;2.096;2024-01-30T18:09:24;9.30;99.90
10512;DHT22;5304;48.604;2.096;2024-01-30T18:12:09;9.30;99.90
10512;DHT22;5304;48.604;2.096;2024-01-30T18:14:54;9.20;99.90
10512;DHT22;5304;48.604;2.096;2024-01-30T18:17:39;9.20;99.90
10512;DHT22;5304;48.604;2.096;2024-01-30T18:20:23;9.20;99.90
10512;DHT22;5304;48.604;2.096;2024-01-30T18:23:07;9.20;99.90
10512;DHT22;5304;48.604;2.096;2024-01-30T18:25:52;9.40;99.90
10512;DHT22;5304;48.604;2.096;2024-01-30T18:28:43;9.20;99.90
10512;DHT22;5304;48.604;2.096;2024-01-30T18:31:28;9.20;99.90
10512;DHT22;5304;48.604;2.096;2024-01-30T18:34:12;9.20;99.90
10512;DHT22;5304;48.604;2.096;2024-01-30T18:36:59;9.30;99.90
10512;DHT22;5304;48.604;2.096;2024-01-30T18:39:44;9.10;99.90
10512;DHT22;5304;48.604;2.096;2024-01-30T18:42:29;9.20;99.90
10512;DHT22;5304;48.604;2.096;2024-01-30T18:45:14;9.20;99.90
10512;DHT22;5304;48.604;2.096;2024-01-30T18:47:58;9.10;99.90
10512;DHT22;5304;48.604;2.096;2024-01-30T18:50:42;9.00;99.90
10512;DHT22;5304;48.604;2.096;2024-01-30T18:53:27;8.90;99.90
10512;DHT22;5304;48.604;2.096;2024-01-30T18:56:12;8.90;99.90
10512;DHT22;5304;48.604;2.096;2024-01-30T18:58:56;8.90;99.90
10512;DHT22;5304;48.604;2.096;2024-01-30T19:01:40;9.00;99.90
10512;DHT22;5304;48.604;2.096;2024-01-30T19:04:25;9.00;99.90
10512;DHT22;5304;48.604;2.096;2024-01-30T19:07:09;9.10;99.90
10512;DHT22;5304;48.604;2.096;2024-01-30T19:09:53;9.10;99.90
10512;DHT22;5304;48.604;2.096;2024-01-30T19:12:37;9.10;99.90
10512;DHT22;5304;48.604;2.096;2024-01-30T19:15:23;9.10;99.90
10512;DHT22;5304;48.604;2.096;2024-01-30T19:18:08;9.00;99.90
10512;DHT22;5304;48.604;2.096;2024-01-30T19:20:52;9.00;99.90
10512;DHT22;5304;48.604;2.096;2024-01-30T19:23:36;9.10;99.90
10512;DHT22;5304;48.604;2.096;2024-01-30T19:26:21;9.00;99.90
10512;DHT22;5304;48.604;2.096;2024-01-30T19:29:05;9.10;99.90
10512;DHT22;5304;48.604;2.096;2024-01-30T19:31:50;9.00;99.90
10512;DHT22;5304;48.604;2.096;2024-01-30T19:34:35;9.00;99.90
10512;DHT22;5304;48.604;2.096;2024-01-30T19:37:19;9.00;99.90
10512;DHT22;5304;48.604;2.096;2024-01-30T19:40:09;8.90;99.90
10512;DHT22;5304;48.604;2.096;2024-01-30T19:42:54;8.80;99.90
10512;DHT22;5304;48.604;2.096;2024-01-30T19:45:38;8.70;99.90
10512;DHT22;5304;48.604;2.096;2024-01-30T19:48:22;8.70;99.90
10512;DHT22;5304;48.604;2.096;2024-01-30T19:51:07;8.70;99.90
10512;DHT22;5304;48.604;2.096;2024-01-30T19:53:51;8.80;99.90
10512;DHT22;5304;48.604;2.096;2024-01-30T19:56:35;8.70;99.90
10512;DHT22;5304;48.604;2.096;2024-01-30T19:59:19;8.70;99.90
10512;DHT22;5304;48.604;2.096;2024-01-30T20:02:04;8.80;99.90
10512;DHT22;5304;48.604;2.096;2024-01-30T20:04:49;8.80;99.90
10512;DHT22;5304;48.604;2.096;2024-01-30T20:07:34;8.90;99.90
10512;DHT22;5304;48.604;2.096;2024-01-30T20:10:19;8.90;99.90
10512;DHT22;5304;48.604;2.096;2024-01-30T20:13:04;8.80;99.90
10512;DHT22;5304;48.604;2.096;2024-01-30T20:15:48;8.90;99.90
10512;DHT22;5304;48.604;2.096;2024-01-30T20:18:35;9.00;99.90
10512;DHT22;5304;48.604;2.096;2024-01-30T20:21:19;8.90;99.90
10512;DHT22;5304;48.604;2.096;2024-01-30T20:24:04;9.00;99.90
10512;DHT22;5304;48.604;2.096;2024-01-30T20:26:49;9.10;99.90
10512;DHT22;5304;48.604;2.096;2024-01-30T20:29:35;9.20;99.90
10512;DHT22;5304;48.604;2.096;2024-01-30T20:32:20;9.20;99.90
10512;DHT22;5304;48.604;2.096;2024-01-30T20:35:05;9.10;99.90
10512;DHT22;5304;48.604;2.096;2024-01-30T20:37:51;9.10;99.90
10512;DHT22;5304;48.604;2.096;2024-01-30T20:40:36;9.10;99.90
10512;DHT22;5304;48.604;2.096;2024-01-30T20:43:20;9.10;99.90
10512;DHT22;5304;48.604;2.096;2024-01-30T20:46:05;9.10;99.90
10512;DHT22;5304;48.604;2.096;2024-01-30T20:48:50;9.10;99.90
10512;DHT22;5304;48.604;2.096;2024-01-30T20:51:35;9.00;99.90
10512;DHT22;5304;48.604;2.096;2024-01-30T20:54:19;9.00;99.90
10512;DHT22;5304;48.604;2.096;2024-01-30T20:57:04;9.00;99.90
10512;DHT22;5304;48.604;2.096;2024-01-30T20:59:49;9.00;99.90
10512;DHT22;5304;48.604;2.096;2024-01-30T21:02:33;9.00;99.90
10512;DHT22;5304;48.604;2.096;2024-01-30T21:05:19;8.90;99.90
10512;DHT22;5304;48.604;2.096;2024-01-30T21:08:06;8.80;99.90
10512;DHT22;5304;48.604;2.096;2024-01-30T21:10:51;8.90;99.90
10512;DHT22;5304;48.604;2.096;2024-01-30T21:13:36;8.90;99.90
10512;DHT22;5304;48.604;2.096;2024-01-30T21:16:20;8.90;99.90
10512;DHT22;5304;48.604;2.096;2024-01-30T21:19:04;9.00;99.90
10512;DHT22;5304;48.604;2.096;2024-01-30T21:21:48;9.10;99.90
10512;DHT22;5304;48.604;2.096;2024-01-30T21:24:33;9.00;99.90
10512;DHT22;5304;48.604;2.096;2024-01-30T21:27:17;9.00;99.90
